LESO

Details ICAO LESO (EAS)
Name San_Sebastian
Region Spain
Timezone Europe/Madrid (UTC+1.0)
Plans Departing 161
Arriving 120
Stats Elevation 14 ft / 4 m (AMSL)
Location 43.356520° -1.790611°
Runways 1
Magnetic Variation 0.297° W
Sunrise 2017-12-16 07:34:50 UTC / 2017-12-16 08:34:50 Local
Sunset 2017-12-16 16:33:32 UTC / 2017-12-16 17:33:32 Local
Advertisement - Login to hide

Runways

ID Width Length Bearing (true) Bearing (mag) Surface Threshold Offset Overrun Length
04 148 ft / 45 m 5,762 ft / 1,756 m 38.68° 38.98° Asphalt 0 ft / 0 m 0 ft / 0 m
22 148 ft / 45 m 5,762 ft / 1,756 m 218.69° 218.99° Asphalt 0 ft / 0 m 0 ft / 0 m

Map

Weather


0- 5 10 15 20 25 30 35+ Temperature / ° C

Clouds and Precipitation
Forecast for 2017-12-16 06:00 UTC. Updated 21 minutes ago

Ground ~20,000 ft ~40,000 ft Winds

METAR

LESO 160330Z AUTO 33010G20KT 270V010 9999 FEW032/// SCT060/// 11/03 Q1017

TAF

TAF LESO 152300Z 1600/1624 27008KT 9999 SCT030 BKN050 TX11/1614Z TN05/1607Z TEMPO 1600/1609 30015G25KT TEMPO 1600/1624 RA TEMPO 1600/1612 3000 SHRA SCT030TCU PROB30 TEMPO 1600/1612 TS SHGR SCT030CB

Frequencies

Ground 121.70 MHz GND
Approach 119.85 MHz APP
Tower 119.85 MHz TWR
Warning: Do not use this data for real-world aviation or navigation. No guarantee of current accuracy is given.